Time;durP1;ratioP1;P1;durP2;ratioP2;P2;SDS_P1;SDS_P2;PMS_P1;PMS_P2;Temp;Humidity;BMP_temperature;BMP_pressure;BME280_temperature;BME280_humidity;BME280_pressure;Samples;Min_cycle;Max_cycle;Signal;HPM_P1;HPM_P2
2021/05/12 00:00:55;;;;;;;2.95;1.60;;;15.80;98.20;;;;;;4177844;28;20075;-57
2021/05/12 00:02:59;;;;;;;2.60;1.63;;;15.80;98.10;;;;;;4178787;28;20099;-62
2021/05/12 00:05:00;;;;;;;3.90;1.80;;;15.80;98.20;;;;;;4177854;28;20048;-62
2021/05/12 00:07:01;;;;;;;1.98;1.73;;;15.70;98.30;;;;;;4178789;28;20040;-62
2021/05/12 00:09:03;;;;;;;3.40;1.90;;;15.70;98.40;;;;;;4177547;28;20040;-63
2021/05/12 00:11:04;;;;;;;4.05;1.92;;;15.60;98.40;;;;;;4179105;28;20435;-64
2021/05/12 00:13:05;;;;;;;2.80;1.88;;;15.60;98.40;;;;;;4177874;28;20036;-64
2021/05/12 00:15:10;;;;;;;5.13;1.87;;;15.60;98.40;;;;;;4176657;28;20033;-66
2021/05/12 00:17:16;;;;;;;4.43;1.50;;;15.50;98.40;;;;;;4175004;28;20107;-65
2021/05/12 00:19:19;;;;;;;6.93;1.57;;;15.50;98.40;;;;;;4175620;28;20787;-62
2021/05/12 00:21:40;;;;;;;4.70;1.70;;;15.50;98.80;;;;;;4173801;28;20037;-59
2021/05/12 00:23:49;;;;;;;1.90;1.60;;;15.40;98.70;;;;;;4176041;28;20025;-60
2021/05/12 00:25:51;;;;;;;3.90;2.07;;;15.30;98.80;;;;;;4173432;28;20050;-64
2021/05/12 00:27:52;;;;;;;4.83;1.73;;;15.20;99.00;;;;;;4175769;28;20032;-65
2021/05/12 00:29:53;;;;;;;3.43;1.80;;;15.20;99.10;;;;;;4174024;28;20087;-64
2021/05/12 00:31:55;;;;;;;6.10;1.93;;;15.10;99.30;;;;;;4175528;28;20492;-64
2021/05/12 00:33:56;;;;;;;5.00;2.20;;;15.10;99.40;;;;;;4173922;28;20033;-63
2021/05/12 00:35:57;;;;;;;1.67;1.40;;;15.10;99.30;;;;;;4174955;28;20042;-62
2021/05/12 00:37:58;;;;;;;2.20;1.40;;;15.00;99.40;;;;;;4174491;28;20071;-61
2021/05/12 00:39:59;;;;;;;3.37;1.50;;;15.00;99.50;;;;;;4174238;28;20075;-66
2021/05/12 00:42:01;;;;;;;9.10;1.83;;;14.90;99.60;;;;;;4174590;28;20485;-64
2021/05/12 00:44:04;;;;;;;2.57;1.60;;;14.90;99.80;;;;;;4173840;28;20546;-63
2021/05/12 00:46:05;;;;;;;6.23;1.87;;;14.80;99.80;;;;;;4175282;28;20133;-65
2021/05/12 00:48:07;;;;;;;3.10;1.87;;;14.80;99.90;;;;;;4172930;28;20079;-61
2021/05/12 00:50:09;;;;;;;5.37;2.10;;;14.80;99.90;;;;;;4175203;28;20029;-65
2021/05/12 00:52:10;;;;;;;10.27;1.70;;;14.70;99.90;;;;;;4173910;28;20032;-61
2021/05/12 00:54:12;;;;;;;6.17;2.20;;;14.70;99.90;;;;;;4175033;28;20086;-61
2021/05/12 00:56:14;;;;;;;4.70;1.87;;;14.70;99.90;;;;;;4173035;28;20045;-61
2021/05/12 00:58:15;;;;;;;2.90;1.57;;;14.60;99.90;;;;;;4175478;28;20087;-61
2021/05/12 01:00:18;;;;;;;4.87;1.93;;;14.50;99.90;;;;;;4173683;28;20114;-62
2021/05/12 01:02:20;;;;;;;3.37;1.73;;;14.50;99.90;;;;;;4175994;28;20427;-64
2021/05/12 01:04:21;;;;;;;3.47;1.30;;;14.40;99.90;;;;;;4174270;28;20048;-65
2021/05/12 01:06:30;;;;;;;4.47;2.00;;;14.40;99.90;;;;;;4175249;28;20439;-63
2021/05/12 01:08:31;;;;;;;3.60;2.13;;;14.40;99.90;;;;;;4173970;28;20078;-61
2021/05/12 01:10:33;;;;;;;4.07;1.70;;;14.30;99.90;;;;;;4174398;28;20118;-61
2021/05/12 01:12:34;;;;;;;4.77;2.03;;;14.40;99.90;;;;;;4173657;28;20138;-61
2021/05/12 01:14:36;;;;;;;5.97;1.83;;;14.40;99.90;;;;;;4174946;28;20078;-58
2021/05/12 01:16:38;;;;;;;3.57;1.67;;;14.40;99.90;;;;;;4174203;28;20025;-61
2021/05/12 01:18:39;;;;;;;2.93;1.90;;;14.30;99.90;;;;;;4173081;28;20053;-61
2021/05/12 01:20:47;;;;;;;6.53;2.13;;;14.20;99.90;;;;;;4174731;28;20037;-61
2021/05/12 01:22:48;;;;;;;2.27;1.73;;;14.20;99.90;;;;;;4173314;28;20091;-61
2021/05/12 01:24:49;;;;;;;6.57;1.90;;;14.10;99.90;;;;;;4174853;28;20053;-61
2021/05/12 01:26:51;;;;;;;4.83;1.73;;;14.10;99.90;;;;;;4171702;28;20033;-61
2021/05/12 01:28:54;;;;;;;4.77;1.87;;;14.00;99.90;;;;;;4174467;28;20512;-61
2021/05/12 01:31:06;;;;;;;8.83;2.10;;;14.00;99.90;;;;;;4172763;28;20480;-61
2021/05/12 01:33:07;;;;;;;5.13;1.47;;;14.00;99.90;;;;;;4174597;28;20585;-60
2021/05/12 01:35:10;;;;;;;5.23;1.83;;;14.10;99.90;;;;;;4172825;28;20087;-61
2021/05/12 01:37:11;;;;;;;9.00;1.70;;;14.30;99.90;;;;;;4175024;28;20074;-61
2021/05/12 01:39:13;;;;;;;5.20;1.97;;;14.40;99.90;;;;;;4172771;28;20361;-61
2021/05/12 01:41:15;;;;;;;7.33;2.23;;;14.50;99.90;;;;;;4174497;28;20067;-61
2021/05/12 01:43:16;;;;;;;2.63;1.60;;;14.70;99.60;;;;;;4172620;28;20483;-61
2021/05/12 01:45:17;;;;;;;6.73;1.77;;;14.70;99.30;;;;;;4174051;28;20100;-61
2021/05/12 01:47:19;;;;;;;4.23;2.60;;;14.70;99.30;;;;;;4172893;28;20029;-61
2021/05/12 01:49:20;;;;;;;5.07;2.00;;;14.70;99.30;;;;;;4173718;28;20059;-61
2021/05/12 01:51:21;;;;;;;3.20;1.80;;;14.60;99.90;;;;;;4173848;28;20087;-61
2021/05/12 01:53:23;;;;;;;6.17;2.37;;;14.30;99.90;;;;;;4172741;28;20083;-66
2021/05/12 01:55:24;;;;;;;7.47;1.83;;;14.10;99.90;;;;;;4174059;28;20025;-66
2021/05/12 01:57:25;;;;;;;4.73;2.07;;;13.90;99.90;;;;;;4172773;28;20440;-62
2021/05/12 01:59:26;;;;;;;4.63;2.20;;;13.80;99.90;;;;;;4174220;28;20021;-66
2021/05/12 02:01:28;;;;;;;4.07;1.90;;;13.70;99.90;;;;;;4172292;28;20421;-64
2021/05/12 02:03:30;;;;;;;5.57;2.23;;;13.60;99.90;;;;;;4173622;28;20037;-63
2021/05/12 02:05:33;;;;;;;3.63;2.00;;;13.60;99.90;;;;;;4156476;28;20448;-65
2021/05/12 02:07:34;;;;;;;5.37;1.73;;;13.50;99.90;;;;;;4157532;28;20539;-61
2021/05/12 02:09:40;;;;;;;5.23;1.93;;;13.60;99.90;;;;;;4161705;28;20102;-61
2021/05/12 02:11:41;;;;;;;5.20;1.90;;;13.60;99.90;;;;;;4174055;28;21196;-61
2021/05/12 02:13:42;;;;;;;3.07;1.90;;;13.60;99.90;;;;;;4172238;28;20439;-61
2021/05/12 02:15:46;;;;;;;4.40;2.00;;;13.70;99.90;;;;;;4173353;28;20029;-62
2021/05/12 02:17:47;;;;;;;3.13;1.80;;;13.70;99.90;;;;;;4172119;28;20029;-62
2021/05/12 02:19:48;;;;;;;2.43;1.67;;;13.80;99.90;;;;;;4173867;28;20041;-62
2021/05/12 02:21:49;;;;;;;7.30;1.67;;;13.80;99.90;;;;;;4172386;28;20530;-63
2021/05/12 02:23:51;;;;;;;6.00;2.27;;;13.80;99.90;;;;;;4172646;28;20049;-64
2021/05/12 02:25:52;;;;;;;7.93;2.40;;;13.90;99.90;;;;;;4173248;28;20595;-64
2021/05/12 02:27:53;;;;;;;3.57;2.10;;;14.00;99.90;;;;;;4172448;28;20037;-62
2021/05/12 02:30:00;;;;;;;2.60;1.97;;;14.00;99.90;;;;;;4172961;28;20025;-63
2021/05/12 02:32:01;;;;;;;4.30;1.90;;;14.00;99.90;;;;;;4172551;28;20366;-64
2021/05/12 02:34:03;;;;;;;5.20;1.70;;;14.00;99.90;;;;;;4173155;28;20029;-62
2021/05/12 02:36:04;;;;;;;3.57;1.83;;;14.00;99.90;;;;;;4172105;28;20037;-66
2021/05/12 02:38:06;;;;;;;2.47;1.70;;;14.00;99.90;;;;;;4173384;28;20021;-64
2021/05/12 02:40:09;;;;;;;4.00;2.40;;;14.00;99.90;;;;;;4170781;28;20483;-66
2021/05/12 02:42:10;;;;;;;3.73;1.73;;;14.00;99.90;;;;;;4173524;28;20045;-62
2021/05/12 02:44:12;;;;;;;4.13;1.80;;;14.00;99.90;;;;;;4171915;28;20033;-65
2021/05/12 02:46:13;;;;;;;9.47;2.00;;;14.00;99.90;;;;;;4173339;28;20045;-62
2021/05/12 02:48:14;;;;;;;3.17;2.23;;;14.00;99.90;;;;;;4171757;28;20036;-64
2021/05/12 02:50:15;;;;;;;5.07;2.10;;;13.90;99.90;;;;;;4173105;28;20049;-62
2021/05/12 02:52:16;;;;;;;6.40;2.00;;;13.90;99.90;;;;;;4171255;28;20075;-61
2021/05/12 02:54:19;;;;;;;2.93;1.90;;;13.90;99.90;;;;;;4172649;28;20074;-61
2021/05/12 02:56:20;;;;;;;3.23;2.00;;;13.80;99.90;;;;;;4172097;28;20017;-66
2021/05/12 02:58:22;;;;;;;6.77;3.00;;;13.80;99.90;;;;;;4172432;28;20099;-61
2021/05/12 03:00:25;;;;;;;4.17;2.33;;;13.80;99.90;;;;;;4172839;28;20033;-60
2021/05/12 03:02:26;;;;;;;5.77;2.50;;;13.70;99.90;;;;;;4172123;28;20094;-63
2021/05/12 03:04:27;;;;;;;3.40;2.70;;;13.70;99.90;;;;;;4173485;28;20029;-60
2021/05/12 03:06:28;;;;;;;6.23;2.33;;;13.60;99.90;;;;;;4171028;28;20052;-61
2021/05/12 03:08:30;;;;;;;3.43;2.07;;;13.60;99.90;;;;;;4173430;28;20879;-63
2021/05/12 03:10:32;;;;;;;7.87;2.53;;;13.70;99.90;;;;;;4170887;28;20036;-62
2021/05/12 03:12:34;;;;;;;6.10;2.23;;;13.80;99.90;;;;;;4173266;28;20052;-63
2021/05/12 03:14:35;;;;;;;6.53;2.40;;;13.90;99.90;;;;;;4171099;28;20447;-62
2021/05/12 03:16:36;;;;;;;5.57;2.07;;;14.00;99.90;;;;;;4173177;28;20024;-60
2021/05/12 03:18:38;;;;;;;8.00;2.10;;;14.10;99.90;;;;;;4171153;28;20094;-64
2021/05/12 03:20:39;;;;;;;7.53;2.13;;;14.20;99.90;;;;;;4171587;28;20045;-61
2021/05/12 03:22:40;;;;;;;2.80;2.10;;;14.30;99.90;;;;;;4170269;28;20068;-58
2021/05/12 03:24:41;;;;;;;3.07;2.20;;;14.30;99.90;;;;;;4172819;28;20037;-59
2021/05/12 03:26:42;;;;;;;3.83;2.10;;;14.40;99.90;;;;;;4171743;28;20041;-59
2021/05/12 03:28:44;;;;;;;6.00;2.03;;;14.40;99.90;;;;;;4172048;28;20029;-56
2021/05/12 03:30:45;;;;;;;5.93;2.00;;;14.50;99.90;;;;;;4172172;28;20075;-60
2021/05/12 03:32:47;;;;;;;6.73;2.03;;;14.60;99.90;;;;;;4170983;28;20543;-60
2021/05/12 03:34:48;;;;;;;6.53;1.90;;;14.60;99.90;;;;;;4173409;28;20471;-63
2021/05/12 03:36:49;;;;;;;9.07;2.30;;;14.70;99.90;;;;;;4169643;28;20037;-60
2021/05/12 03:38:52;;;;;;;6.63;2.33;;;14.80;99.90;;;;;;4172871;28;20134;-60
2021/05/12 03:40:53;;;;;;;5.40;2.10;;;15.00;99.90;;;;;;4171512;28;21037;-65
2021/05/12 03:42:56;;;;;;;3.37;2.07;;;15.00;99.80;;;;;;4172930;28;20385;-63
2021/05/12 03:44:57;;;;;;;8.03;2.37;;;15.30;99.40;;;;;;4171377;28;20029;-65
2021/05/12 03:46:59;;;;;;;5.30;2.00;;;15.40;99.00;;;;;;4173023;28;20078;-61
2021/05/12 03:49:00;;;;;;;14.93;2.57;;;15.50;98.70;;;;;;4170953;28;20037;-67
2021/05/12 03:51:01;;;;;;;5.97;2.57;;;15.60;98.40;;;;;;4175048;28;20098;-66
2021/05/12 03:53:03;;;;;;;5.03;2.43;;;15.80;98.10;;;;;;4174088;28;20106;-58
2021/05/12 03:55:07;;;;;;;7.70;2.37;;;16.10;97.50;;;;;;4175626;28;20033;-61
2021/05/12 03:57:08;;;;;;;8.63;2.20;;;16.20;97.00;;;;;;4174600;28;20082;-61
2021/05/12 03:59:09;;;;;;;12.13;2.57;;;16.30;96.60;;;;;;4175473;28;20169;-61
2021/05/12 04:01:10;;;;;;;6.83;2.70;;;16.40;96.20;;;;;;4174236;28;20025;-57
2021/05/12 04:03:13;;;;;;;7.57;2.23;;;16.70;95.70;;;;;;4173689;28;20036;-60
2021/05/12 04:05:15;;;;;;;7.68;2.20;;;16.80;95.20;;;;;;4174945;28;20051;-60
2021/05/12 04:07:16;;;;;;;5.00;1.80;;;16.80;94.90;;;;;;4174018;28;20033;-59
2021/05/12 04:09:17;;;;;;;12.63;3.88;;;17.00;94.50;;;;;;4174851;28;20029;-66
2021/05/12 04:11:18;;;;;;;8.45;2.50;;;17.20;93.90;;;;;;4173926;28;20029;-60
2021/05/12 04:13:21;;;;;;;5.65;1.98;;;17.50;93.50;;;;;;4175330;28;20036;-60
2021/05/12 04:15:22;;;;;;;4.00;2.10;;;17.70;92.70;;;;;;4173372;28;20082;-61
2021/05/12 04:17:23;;;;;;;7.03;2.00;;;17.90;92.20;;;;;;4173502;28;20044;-62
2021/05/12 04:19:24;;;;;;;7.10;2.13;;;18.10;91.50;;;;;;4173639;28;20041;-62
2021/05/12 04:21:25;;;;;;;6.68;2.47;;;18.30;91.00;;;;;;4174927;28;20025;-60
2021/05/12 04:23:27;;;;;;;7.50;2.13;;;18.50;90.50;;;;;;4173013;28;20048;-64
2021/05/12 04:25:28;;;;;;;5.13;1.95;;;18.60;89.30;;;;;;4175209;28;20114;-64
2021/05/12 04:27:29;;;;;;;10.02;2.10;;;18.80;88.60;;;;;;4173310;28;20103;-61
2021/05/12 04:29:30;;;;;;;13.85;2.55;;;19.00;87.60;;;;;;4174199;28;20041;-66
2021/05/12 04:31:32;;;;;;;7.72;3.17;;;19.20;86.20;;;;;;4172407;28;20046;-64
2021/05/12 04:33:34;;;;;;;6.25;2.20;;;19.40;85.10;;;;;;4172973;28;20083;-67
2021/05/12 04:35:35;;;;;;;7.50;2.20;;;19.10;84.40;;;;;;4172653;28;20034;-64
2021/05/12 04:37:36;;;;;;;4.43;2.50;;;19.20;84.10;;;;;;4173167;28;20025;-63
2021/05/12 04:39:37;;;;;;;5.32;2.28;;;19.10;84.50;;;;;;4174737;28;20086;-67
2021/05/12 04:41:38;;;;;;;5.38;2.20;;;19.00;84.50;;;;;;4172761;28;20439;-63
2021/05/12 04:43:39;;;;;;;6.25;2.13;;;19.10;84.40;;;;;;4174722;28;20037;-64
2021/05/12 04:45:40;;;;;;;10.30;2.72;;;19.20;84.00;;;;;;4173606;28;20033;-64
2021/05/12 04:47:42;;;;;;;5.93;2.60;;;19.00;84.00;;;;;;4174771;28;20040;-62
2021/05/12 04:49:43;;;;;;;11.73;2.97;;;18.70;84.90;;;;;;4173356;28;20033;-65
2021/05/12 04:51:44;;;;;;;9.35;2.50;;;18.70;85.60;;;;;;4173287;28;20033;-66
2021/05/12 04:53:46;;;;;;;7.82;2.30;;;18.70;85.20;;;;;;4172377;28;20808;-62
2021/05/12 04:55:47;;;;;;;12.82;2.50;;;18.80;85.00;;;;;;4173929;28;20033;-63
2021/05/12 04:57:48;;;;;;;8.43;2.20;;;18.90;84.80;;;;;;4172717;28;20033;-61
2021/05/12 04:59:50;;;;;;;10.02;2.80;;;19.30;83.80;;;;;;4173211;28;20029;-62
2021/05/12 05:01:52;;;;;;;8.10;2.22;;;19.30;83.70;;;;;;4172747;28;20040;-61
2021/05/12 05:03:53;;;;;;;10.57;3.10;;;19.30;83.80;;;;;;4172807;28;20071;-61
2021/05/12 05:05:54;;;;;;;11.85;2.60;;;19.20;83.70;;;;;;4173335;28;20384;-60
2021/05/12 05:07:55;;;;;;;11.32;3.42;;;19.10;83.90;;;;;;4172714;28;20082;-63
2021/05/12 05:10:01;;;;;;;7.18;2.20;;;19.20;83.60;;;;;;4174207;28;20637;-64
2021/05/12 05:12:02;;;;;;;12.43;3.13;;;19.30;83.20;;;;;;4172343;28;20469;-64
2021/05/12 05:14:05;;;;;;;12.48;3.83;;;19.40;83.20;;;;;;4173775;28;20021;-64
2021/05/12 05:16:08;;;;;;;12.45;3.05;;;19.60;82.20;;;;;;4172346;28;20408;-65
2021/05/12 05:18:10;;;;;;;5.55;1.90;;;19.60;81.80;;;;;;4173552;28;20033;-66
2021/05/12 05:20:12;;;;;;;5.57;2.10;;;19.60;81.00;;;;;;4172657;28;20045;-67
2021/05/12 05:22:16;;;;;;;10.55;2.83;;;19.40;81.30;;;;;;4174097;28;20091;-65
2021/05/12 05:24:17;;;;;;;6.50;2.67;;;19.50;81.60;;;;;;4172037;28;20097;-62
2021/05/12 05:26:18;;;;;;;6.28;2.20;;;19.60;81.10;;;;;;4173731;28;20079;-61
2021/05/12 05:28:19;;;;;;;6.72;1.98;;;19.80;80.70;;;;;;4172228;28;20448;-60
2021/05/12 05:30:20;;;;;;;7.75;1.83;;;19.60;80.70;;;;;;4173875;28;20075;-62
2021/05/12 05:32:22;;;;;;;6.30;2.28;;;19.50;80.40;;;;;;4172449;28;20570;-62
2021/05/12 05:34:23;;;;;;;7.25;2.15;;;19.60;80.10;;;;;;4173108;28;20044;-63
2021/05/12 05:36:24;;;;;;;8.55;1.80;;;19.80;79.50;;;;;;4173156;28;20029;-62
2021/05/12 05:38:25;;;;;;;5.97;2.10;;;19.80;79.40;;;;;;4173157;28;20029;-61
2021/05/12 05:40:27;;;;;;;8.43;1.90;;;19.70;78.30;;;;;;4173214;28;20444;-63
2021/05/12 05:42:28;;;;;;;11.35;1.98;;;19.80;77.10;;;;;;4172217;28;20037;-61
2021/05/12 05:44:29;;;;;;;12.60;2.00;;;19.80;76.50;;;;;;4173699;28;20045;-62
2021/05/12 05:46:30;;;;;;;3.00;1.40;;;20.00;75.70;;;;;;4171821;28;20493;-63
2021/05/12 05:48:31;;;;;;;2.78;1.20;;;20.20;74.00;;;;;;4173105;28;20114;-62
2021/05/12 05:50:32;;;;;;;7.07;1.60;;;20.10;72.00;;;;;;4172823;28;20501;-61
2021/05/12 05:52:33;;;;;;;6.22;1.88;;;20.00;70.90;;;;;;4173357;28;20370;-62
2021/05/12 05:54:34;;;;;;;12.00;1.55;;;20.00;70.70;;;;;;4172165;28;20037;-63
2021/05/12 05:56:35;;;;;;;3.13;1.40;;;20.10;69.80;;;;;;4173755;28;20079;-64
2021/05/12 05:58:36;;;;;;;5.93;1.70;;;20.10;68.90;;;;;;4171974;28;20025;-67
2021/05/12 06:00:40;;;;;;;13.20;1.98;;;19.90;68.70;;;;;;4173286;28;20064;-68
2021/05/12 06:02:41;;;;;;;5.30;1.80;;;19.90;69.40;;;;;;4171714;28;20029;-65
2021/05/12 06:04:42;;;;;;;8.65;1.95;;;20.00;68.40;;;;;;4172717;28;20032;-64
2021/05/12 06:06:43;;;;;;;8.55;1.77;;;19.90;67.40;;;;;;4171718;28;20440;-64
2021/05/12 06:08:45;;;;;;;4.05;1.70;;;19.90;67.40;;;;;;4169832;28;20036;-62
2021/05/12 06:10:46;;;;;;;6.60;1.27;;;19.90;66.70;;;;;;4172836;28;20830;-62
2021/05/12 06:12:47;;;;;;;12.52;1.70;;;19.90;66.40;;;;;;4170968;28;20059;-66
2021/05/12 06:14:48;;;;;;;8.35;1.88;;;20.00;66.20;;;;;;4172773;28;20737;-63
2021/05/12 06:16:50;;;;;;;2.60;1.23;;;20.00;65.90;;;;;;4171547;28;20033;-62
2021/05/12 06:18:52;;;;;;;9.48;1.35;;;20.20;65.70;;;;;;4172688;28;20071;-63
2021/05/12 06:20:53;;;;;;;4.00;1.33;;;20.20;65.10;;;;;;4171866;28;20045;-65
2021/05/12 06:23:02;;;;;;;5.55;1.55;;;20.20;64.90;;;;;;4172997;28;20199;-63
2021/05/12 06:25:04;;;;;;;5.63;1.02;;;20.10;64.40;;;;;;4171171;28;20032;-60
2021/05/12 06:27:06;;;;;;;8.68;1.60;;;20.30;64.40;;;;;;4172833;28;20186;-61
2021/05/12 06:29:07;;;;;;;3.67;1.40;;;20.50;64.00;;;;;;4171222;28;20028;-61
2021/05/12 06:31:08;;;;;;;4.97;1.45;;;20.50;63.70;;;;;;4172704;28;20089;-60
2021/05/12 06:33:09;;;;;;;5.47;1.45;;;20.50;63.80;;;;;;4171607;28;20029;-62
2021/05/12 06:35:10;;;;;;;3.55;1.50;;;20.60;63.80;;;;;;4172548;28;20423;-60
2021/05/12 06:37:11;;;;;;;2.55;1.08;;;20.70;63.40;;;;;;4171348;28;20087;-63
2021/05/12 06:39:12;;;;;;;4.70;1.38;;;20.70;63.40;;;;;;4172035;28;20040;-62
2021/05/12 06:41:15;;;;;;;4.03;1.08;;;20.70;63.10;;;;;;4172404;28;20013;-62
2021/05/12 06:43:16;;;;;;;11.80;1.50;;;20.70;63.00;;;;;;4170891;28;20041;-61
2021/05/12 06:45:17;;;;;;;3.92;1.27;;;21.00;63.10;;;;;;4168833;28;20590;-61
2021/05/12 06:47:18;;;;;;;4.20;1.48;;;21.00;62.60;;;;;;4167924;28;20480;-62
2021/05/12 06:49:20;;;;;;;5.85;1.17;;;21.10;63.10;;;;;;4171608;28;20028;-61
2021/05/12 06:51:21;;;;;;;6.53;1.20;;;21.30;62.90;;;;;;4171876;28;20103;-61
2021/05/12 06:53:27;;;;;;;9.35;2.00;;;21.40;62.30;;;;;;4171581;28;20024;-66
2021/05/12 06:55:28;;;;;;;9.95;2.45;;;21.30;62.10;;;;;;4171419;28;20063;-67
2021/05/12 06:57:29;;;;;;;5.13;1.60;;;21.30;62.20;;;;;;4172295;28;20041;-67
2021/05/12 06:59:30;;;;;;;3.28;1.30;;;21.00;62.20;;;;;;4168467;28;20045;-60
2021/05/12 07:01:32;;;;;;;7.82;1.63;;;20.90;62.60;;;;;;4172113;28;20044;-66
2021/05/12 07:03:33;;;;;;;5.18;1.60;;;20.90;63.00;;;;;;4170784;28;20082;-67
2021/05/12 07:05:34;;;;;;;3.97;1.55;;;20.90;63.60;;;;;;4171712;28;20099;-64
2021/05/12 07:07:35;;;;;;;6.50;1.38;;;21.10;63.80;;;;;;4170966;28;20538;-64
2021/05/12 07:09:36;;;;;;;1.48;1.15;;;21.40;63.00;;;;;;4171664;28;20082;-62
2021/05/12 07:11:38;;;;;;;5.88;1.48;;;21.70;62.50;;;;;;4171125;28;20021;-64
2021/05/12 07:13:39;;;;;;;2.95;1.30;;;22.10;61.80;;;;;;4171359;28;20083;-63
2021/05/12 07:15:40;;;;;;;3.20;1.25;;;22.30;61.50;;;;;;4171660;28;20102;-62
2021/05/12 07:17:42;;;;;;;3.63;1.38;;;22.40;61.10;;;;;;4170955;28;20037;-65
2021/05/12 07:19:43;;;;;;;6.82;1.60;;;22.40;60.70;;;;;;4171877;28;20045;-66
2021/05/12 07:21:46;;;;;;;2.20;1.10;;;22.10;60.80;;;;;;4169470;28;20471;-62
2021/05/12 07:23:48;;;;;;;3.95;1.33;;;22.00;61.60;;;;;;4172508;28;20073;-61
2021/05/12 07:25:50;;;;;;;2.47;1.30;;;22.20;61.60;;;;;;4179117;28;20550;-62
2021/05/12 07:27:51;;;;;;;3.33;1.60;;;22.10;61.30;;;;;;4180450;28;20045;-62
2021/05/12 07:29:52;;;;;;;4.57;1.35;;;22.10;61.30;;;;;;4174506;28;20052;-63
2021/05/12 07:31:53;;;;;;;2.08;1.33;;;22.10;61.20;;;;;;4175965;28;20103;-63
2021/05/12 07:33:55;;;;;;;2.83;1.10;;;22.30;61.00;;;;;;4174017;28;20078;-63
2021/05/12 07:35:56;;;;;;;3.72;1.30;;;22.50;60.80;;;;;;4175571;28;20090;-63
2021/05/12 07:37:57;;;;;;;4.72;1.40;;;22.50;60.50;;;;;;4173589;28;20099;-63
2021/05/12 07:39:58;;;;;;;3.53;1.48;;;22.40;60.30;;;;;;4174932;28;20435;-63
2021/05/12 07:42:03;;;;;;;6.00;1.90;;;22.50;60.50;;;;;;4174383;28;20021;-66
2021/05/12 07:44:04;;;;;;;5.03;1.67;;;22.50;60.10;;;;;;4174515;28;20095;-63
2021/05/12 07:46:06;;;;;;;2.63;1.50;;;22.30;60.10;;;;;;4175054;28;20033;-63
2021/05/12 07:48:11;;;;;;;4.22;1.25;;;22.10;60.40;;;;;;4173774;28;20028;-62
2021/05/12 07:50:12;;;;;;;3.72;1.33;;;21.90;60.50;;;;;;4175459;28;20049;-65
2021/05/12 07:52:15;;;;;;;2.03;1.48;;;21.90;60.70;;;;;;4174670;28;20021;-62
2021/05/12 07:54:16;;;;;;;3.08;2.05;;;22.00;60.70;;;;;;4175070;28;20543;-62
2021/05/12 07:56:17;;;;;;;3.13;1.40;;;22.10;60.40;;;;;;4173962;28;20079;-63
2021/05/12 07:58:18;;;;;;;4.13;1.40;;;22.20;60.10;;;;;;4175392;28;20079;-62
2021/05/12 08:00:20;;;;;;;3.70;1.30;;;22.10;59.90;;;;;;4173444;28;20029;-61
2021/05/12 08:02:21;;;;;;;5.03;1.50;;;22.10;59.90;;;;;;4175105;28;20354;-61
2021/05/12 08:04:22;;;;;;;6.25;1.50;;;22.10;60.20;;;;;;4172718;28;20539;-65
2021/05/12 08:06:25;;;;;;;3.65;2.30;;;22.30;60.30;;;;;;4175496;28;20044;-61
2021/05/12 08:23:53;;;;;;;5.13;2.08;;;22.00;59.30;;;;;;2222215;28;21897;-64
2021/05/12 08:25:54;;;;;;;5.65;1.73;;;21.90;59.50;;;;;;4171485;28;20555;-62
2021/05/12 08:27:56;;;;;;;3.90;1.63;;;21.70;60.00;;;;;;4174874;28;20444;-62
2021/05/12 08:30:00;;;;;;;2.60;1.50;;;21.70;60.20;;;;;;4172930;28;20420;-62
2021/05/12 08:32:04;;;;;;;6.35;2.38;;;21.70;60.40;;;;;;4175340;28;20087;-63
2021/05/12 08:34:07;;;;;;;7.88;2.42;;;21.60;60.60;;;;;;4173796;28;20481;-63
2021/05/12 08:36:08;;;;;;;4.03;2.33;;;21.60;60.90;;;;;;4173684;28;20499;-63
2021/05/12 08:38:18;;;;;;;6.68;1.67;;;21.60;61.10;;;;;;4184782;28;20418;-61
2021/05/12 08:40:20;;;;;;;5.80;1.70;;;21.70;61.10;;;;;;4191274;28;20165;-62
2021/05/12 08:42:23;;;;;;;7.10;2.25;;;21.60;61.00;;;;;;4191515;28;20082;-62
2021/05/12 08:44:25;;;;;;;12.50;3.17;;;21.60;61.10;;;;;;4190236;28;20166;-62
2021/05/12 08:46:27;;;;;;;3.10;1.88;;;21.50;61.10;;;;;;4191006;28;20125;-63
2021/05/12 08:48:29;;;;;;;8.60;1.60;;;21.60;61.20;;;;;;4189609;28;20032;-62
2021/05/12 08:50:31;;;;;;;12.15;1.65;;;21.80;60.70;;;;;;4191704;28;20024;-63
2021/05/12 08:52:33;;;;;;;2.72;1.30;;;21.70;59.90;;;;;;4189563;28;20509;-62
2021/05/12 08:54:35;;;;;;;4.18;1.48;;;21.60;60.60;;;;;;4191324;28;20037;-63
2021/05/12 08:56:37;;;;;;;4.68;1.60;;;21.50;60.60;;;;;;4190065;28;20082;-62
2021/05/12 08:58:38;;;;;;;5.63;1.60;;;21.50;60.90;;;;;;4191423;28;20036;-62
2021/05/12 09:00:40;;;;;;;6.20;1.77;;;21.60;61.20;;;;;;4189678;28;20033;-62
2021/05/12 09:02:41;;;;;;;1.85;1.35;;;21.80;61.30;;;;;;4191325;28;20098;-63
2021/05/12 09:04:42;;;;;;;8.88;1.48;;;21.90;61.40;;;;;;4189377;28;20439;-63
2021/05/12 09:06:43;;;;;;;3.10;1.30;;;22.00;61.50;;;;;;4191377;28;20919;-63
2021/05/12 09:08:47;;;;;;;4.28;1.85;;;22.10;60.90;;;;;;4189447;28;20044;-62
2021/05/12 09:10:48;;;;;;;6.13;1.65;;;22.20;60.90;;;;;;4190573;28;20109;-63
2021/05/12 09:12:59;;;;;;;4.78;1.52;;;22.20;60.90;;;;;;4190317;28;20112;-63
2021/05/12 09:15:00;;;;;;;6.22;1.58;;;22.30;60.50;;;;;;4190120;28;20040;-62
2021/05/12 09:17:02;;;;;;;2.72;1.55;;;22.40;60.50;;;;;;4190436;28;20017;-64
2021/05/12 09:19:07;;;;;;;4.72;1.30;;;22.50;60.40;;;;;;4189737;28;20131;-63
2021/05/12 09:21:08;;;;;;;5.47;1.90;;;22.40;60.50;;;;;;4190780;28;20481;-63
2021/05/12 09:23:16;;;;;;;4.85;1.60;;;22.40;60.60;;;;;;4189890;28;20090;-62
2021/05/12 09:25:17;;;;;;;9.05;2.03;;;22.50;60.80;;;;;;4190565;28;20044;-62
2021/05/12 09:27:23;;;;;;;2.70;1.20;;;22.60;60.50;;;;;;4188973;28;20052;-61
2021/05/12 09:29:28;;;;;;;3.58;1.27;;;22.50;60.30;;;;;;4190377;28;20040;-62
2021/05/12 09:31:36;;;;;;;1.98;1.05;;;22.50;59.40;;;;;;4189019;28;20025;-63
2021/05/12 09:33:40;;;;;;;5.22;1.70;;;22.50;59.20;;;;;;4189924;28;20086;-62
2021/05/12 09:35:43;;;;;;;4.53;1.00;;;22.50;59.40;;;;;;4188638;28;20045;-62
2021/05/12 09:37:45;;;;;;;3.00;1.20;;;22.60;59.60;;;;;;4190842;28;20079;-63
2021/05/12 09:39:50;;;;;;;2.90;1.60;;;22.70;59.40;;;;;;4188835;28;20024;-63
2021/05/12 09:41:51;;;;;;;2.15;1.30;;;22.70;59.40;;;;;;4190844;28;20865;-62
2021/05/12 09:43:54;;;;;;;4.00;1.27;;;22.60;59.50;;;;;;4188650;28;20036;-62
2021/05/12 09:46:25;;;;;;;2.90;1.52;;;22.50;60.60;;;;;;4190632;28;20113;-62
2021/05/12 09:48:26;;;;;;;5.03;1.50;;;22.50;60.40;;;;;;4184744;28;20110;-62
2021/05/12 09:50:37;;;;;;;6.25;1.13;;;22.50;60.20;;;;;;4190472;28;20040;-63
2021/05/12 09:52:38;;;;;;;4.25;1.60;;;22.70;60.30;;;;;;4187331;28;20117;-63
2021/05/12 09:54:39;;;;;;;3.78;1.70;;;22.70;60.00;;;;;;4190565;28;20446;-63
2021/05/12 09:56:46;;;;;;;4.97;2.10;;;22.80;60.10;;;;;;4188930;28;20028;-63
2021/05/12 09:58:54;;;;;;;6.10;2.00;;;22.90;60.20;;;;;;4190553;28;20074;-63
2021/05/12 10:00:56;;;;;;;6.50;2.60;;;22.90;60.70;;;;;;4189023;28;20522;-63
2021/05/12 10:03:00;;;;;;;7.07;2.08;;;22.90;60.90;;;;;;4190423;28;20484;-64
2021/05/12 10:05:03;;;;;;;9.50;2.97;;;22.80;61.40;;;;;;4189150;28;20036;-63
2021/05/12 10:07:19;;;;;;;9.68;2.90;;;22.90;61.30;;;;;;4189424;28;20125;-63
2021/05/12 10:09:26;;;;;;;4.03;2.10;;;23.00;61.20;;;;;;4187037;28;20064;-63
2021/05/12 10:11:27;;;;;;;4.57;2.40;;;22.90;61.30;;;;;;4189631;28;20106;-65
2021/05/12 10:13:29;;;;;;;8.40;2.00;;;22.90;61.50;;;;;;4188686;28;20021;-63
2021/05/12 10:15:30;;;;;;;7.68;1.60;;;23.00;61.70;;;;;;4188856;28;20677;-63
2021/05/12 10:17:33;;;;;;;10.85;3.53;;;23.10;61.30;;;;;;4188654;28;20036;-63
2021/05/12 10:19:36;;;;;;;12.50;2.38;;;23.10;61.30;;;;;;4187743;28;20081;-64
2021/05/12 10:21:37;;;;;;;3.00;1.27;;;23.10;61.00;;;;;;4184382;28;20040;-63
2021/05/12 10:23:38;;;;;;;3.45;1.42;;;23.20;60.30;;;;;;4171649;28;20028;-65
2021/05/12 10:25:40;;;;;;;7.75;1.80;;;23.20;60.70;;;;;;4172406;28;20052;-60
2021/05/12 10:27:42;;;;;;;6.03;1.98;;;23.20;60.60;;;;;;4177332;28;20078;-64
2021/05/12 10:29:48;;;;;;;5.03;2.05;;;23.20;60.70;;;;;;4189794;28;20032;-62
2021/05/12 10:31:50;;;;;;;6.40;1.30;;;23.30;60.30;;;;;;4187994;28;20094;-62
2021/05/12 10:33:51;;;;;;;3.55;1.88;;;23.50;59.90;;;;;;4189425;28;20040;-62
2021/05/12 10:36:08;;;;;;;7.28;1.25;;;23.50;59.10;;;;;;4188491;28;20090;-62
2021/05/12 10:38:32;;;;;;;4.88;1.13;;;23.60;59.30;;;;;;4189824;28;20061;-62
2021/05/12 10:40:41;;;;;;;3.10;1.17;;;23.60;59.30;;;;;;4188106;28;20024;-62
2021/05/12 10:42:57;;;;;;;10.00;1.50;;;23.70;58.70;;;;;;4189643;28;20036;-61
2021/05/12 10:44:59;;;;;;;5.47;1.27;;;23.80;58.40;;;;;;4188329;28;20040;-63
2021/05/12 10:47:19;;;;;;;6.95;1.70;;;23.80;58.00;;;;;;4189586;28;20539;-62
2021/05/12 10:49:24;;;;;;;3.83;1.20;;;23.80;56.50;;;;;;4188332;28;20024;-64
2021/05/12 10:51:33;;;;;;;1.60;1.30;;;23.80;56.70;;;;;;4189772;28;20605;-61